Time;durP1;ratioP1;P1;durP2;ratioP2;P2;SDS_P1;SDS_P2;PMS_P1;PMS_P2;Temp;Humidity;BMP_temperature;BMP_pressure;BME280_temperature;BME280_humidity;BME280_pressure;Samples;Min_cycle;Max_cycle;Signal;HPM_P1;HPM_P2
2023/12/31 00:00:19;;;;;;;0.70;0.30;;;;;;;6.31;83.22;99833.55;90021;265;136890;-73
2023/12/31 00:02:22;;;;;;;1.00;0.20;;;;;;;6.32;83.11;99839.24;90259;269;22254;-71
2023/12/31 00:04:24;;;;;;;0.70;0.20;;;;;;;6.32;82.92;99832.20;89961;267;136317;-68
2023/12/31 00:06:26;;;;;;;1.10;0.40;;;;;;;6.32;82.56;99833.40;90099;266;23278;-70
2023/12/31 00:08:27;;;;;;;2.90;0.50;;;;;;;6.37;82.61;99838.15;90134;262;137161;-70
2023/12/31 00:10:29;;;;;;;1.30;0.30;;;;;;;6.38;82.13;99831.48;90046;266;22319;-70
2023/12/31 00:12:31;;;;;;;0.80;0.30;;;;;;;6.39;81.84;99836.55;89931;265;135821;-71
2023/12/31 00:14:32;;;;;;;1.60;0.20;;;;;;;6.35;81.83;99837.50;90087;265;22421;-69
2023/12/31 00:16:34;;;;;;;2.20;0.20;;;;;;;6.36;81.99;99836.34;89990;273;136607;-72
2023/12/31 00:18:36;;;;;;;1.00;0.40;;;;;;;6.36;81.97;99837.16;90088;273;23129;-71
2023/12/31 00:20:38;;;;;;;0.40;0.30;;;;;;;6.37;81.54;99842.87;89983;266;135417;-70
2023/12/31 00:22:40;;;;;;;0.90;0.20;;;;;;;6.37;81.68;99841.08;90268;269;22276;-69
2023/12/31 00:24:42;;;;;;;1.70;0.50;;;;;;;6.34;81.73;99838.33;90009;269;137850;-70
2023/12/31 00:26:43;;;;;;;0.70;0.40;;;;;;;6.30;81.90;99841.75;90163;265;22223;-73
2023/12/31 00:28:45;;;;;;;1.10;0.30;;;;;;;6.28;82.04;99839.81;89786;267;135840;-73
2023/12/31 00:30:47;;;;;;;2.10;0.30;;;;;;;6.27;82.13;99844.38;90210;272;22891;-73
2023/12/31 00:32:50;;;;;;;0.70;0.30;;;;;;;6.25;82.18;99838.10;89964;272;136391;-67
2023/12/31 00:34:51;;;;;;;0.40;0.20;;;;;;;6.23;82.16;99835.14;90108;273;23197;-72
2023/12/31 00:36:53;;;;;;;0.60;0.20;;;;;;;6.21;82.28;99831.10;89999;273;135535;-69
2023/12/31 00:38:55;;;;;;;1.90;0.30;;;;;;;6.25;82.20;99830.81;90058;273;22378;-67
2023/12/31 00:40:57;;;;;;;0.80;0.20;;;;;;;6.28;82.00;99828.10;90066;269;137481;-73
2023/12/31 00:42:59;;;;;;;0.50;0.50;;;;;;;6.30;81.73;99828.28;90087;263;22302;-72
2023/12/31 00:45:01;;;;;;;0.90;0.30;;;;;;;6.37;81.43;99825.05;89904;271;136123;-69
2023/12/31 00:47:03;;;;;;;1.80;1.20;;;;;;;6.42;81.43;99821.87;90067;274;22273;-70
2023/12/31 00:49:05;;;;;;;0.40;0.30;;;;;;;6.44;81.17;99817.38;89975;266;135587;-71
2023/12/31 00:51:07;;;;;;;1.20;0.30;;;;;;;6.39;81.12;99815.47;89964;267;23087;-72
2023/12/31 00:53:10;;;;;;;0.90;0.40;;;;;;;6.34;81.45;99813.44;90013;271;135276;-71
2023/12/31 00:55:12;;;;;;;0.80;0.50;;;;;;;6.30;81.69;99814.06;90105;272;22211;-72
2023/12/31 00:57:14;;;;;;;0.70;0.30;;;;;;;6.24;81.71;99821.56;89987;269;136352;-69
2023/12/31 00:59:16;;;;;;;1.50;0.30;;;;;;;6.18;82.03;99824.70;89961;267;22393;-71
2023/12/31 01:01:18;;;;;;;1.40;1.10;;;;;;;6.11;82.63;99827.77;89841;267;135735;-70
2023/12/31 01:03:20;;;;;;;1.00;0.30;;;;;;;6.06;83.01;99821.64;89999;272;22393;-70
2023/12/31 01:05:22;;;;;;;0.90;0.40;;;;;;;6.03;83.27;99826.05;89868;275;136585;-70
2023/12/31 01:09:30;;;;;;;0.50;0.40;;;;;;;5.76;85.30;99825.11;84917;300;602582;-71
2023/12/31 01:11:31;;;;;;;1.00;0.90;;;;;;;5.75;85.39;99826.51;86032;291;22579;-69
2023/12/31 01:13:34;;;;;;;1.00;0.80;;;;;;;5.76;85.60;99826.98;88683;288;136659;-70
2023/12/31 01:15:36;;;;;;;0.80;0.40;;;;;;;5.84;85.29;99826.21;89264;284;22418;-69
2023/12/31 01:17:38;;;;;;;0.60;0.40;;;;;;;5.91;85.05;99822.83;89091;283;136136;-70
2023/12/31 01:19:39;;;;;;;0.80;0.40;;;;;;;5.93;85.09;99831.38;89267;283;22236;-72
2023/12/31 01:21:42;;;;;;;0.60;0.60;;;;;;;5.92;85.08;99835.90;89272;279;135851;-69
2023/12/31 01:23:44;;;;;;;2.00;0.90;;;;;;;5.87;85.35;99839.07;89447;270;142425;-70
2023/12/31 01:25:49;;;;;;;1.60;0.30;;;;;;;5.84;85.59;99835.75;89296;283;137411;-71
2023/12/31 01:27:53;;;;;;;1.40;0.90;;;;;;;5.82;85.79;99833.66;89212;283;22382;-69
2023/12/31 01:29:56;;;;;;;2.70;0.40;;;;;;;5.84;85.91;99831.34;89186;282;134840;-72
2023/12/31 01:31:59;;;;;;;3.50;0.40;;;;;;;5.78;86.13;99836.88;89492;281;22241;-70
2023/12/31 01:34:01;;;;;;;0.90;0.60;;;;;;;5.79;86.39;99843.45;89113;283;134718;-70
2023/12/31 01:36:12;;;;;;;1.40;0.70;;;;;;;5.76;86.58;99836.05;89489;281;23122;-70
2023/12/31 01:38:14;;;;;;;2.40;0.90;;;;;;;5.70;86.95;99840.27;89500;281;22804;-69
2023/12/31 01:40:15;;;;;;;1.70;1.30;;;;;;;5.72;86.88;99842.19;89640;278;136006;-70
2023/12/31 01:42:17;;;;;;;2.60;0.90;;;;;;;5.74;87.04;99847.00;89807;271;22246;-71
2023/12/31 01:44:19;;;;;;;2.50;0.80;;;;;;;5.78;87.20;99842.48;89682;270;136658;-70
2023/12/31 01:46:27;;;;;;;1.90;0.80;;;;;;;5.82;86.93;99846.52;89957;266;22813;-70
2023/12/31 01:48:29;;;;;;;2.50;0.80;;;;;;;5.79;87.28;99846.60;89695;278;135882;-71
2023/12/31 01:50:31;;;;;;;1.20;1.10;;;;;;;5.79;87.48;99847.26;88284;275;22565;-72
2023/12/31 01:52:34;;;;;;;2.70;1.50;;;;;;;5.77;87.66;99845.67;89548;275;135289;-71
2023/12/31 01:54:36;;;;;;;2.90;0.80;;;;;;;5.74;87.87;99844.02;89668;279;22270;-73
2023/12/31 01:56:38;;;;;;;1.30;1.20;;;;;;;5.75;87.88;99844.09;89810;271;136525;-73
2023/12/31 01:58:41;;;;;;;2.50;2.00;;;;;;;5.75;87.79;99841.36;89900;271;22272;-70
2023/12/31 02:00:43;;;;;;;2.30;1.30;;;;;;;5.72;88.15;99847.43;89571;276;135085;-74
2023/12/31 02:02:47;;;;;;;2.60;2.40;;;;;;;5.74;88.22;99846.34;90039;266;22368;-72
2023/12/31 02:04:49;;;;;;;4.80;3.30;;;;;;;5.76;88.20;99850.30;89402;272;135432;-72
2023/12/31 02:06:51;;;;;;;6.30;4.10;;;;;;;5.83;87.94;99850.98;89688;272;22932;-72
2023/12/31 02:08:53;;;;;;;6.30;4.10;;;;;;;5.86;87.82;99859.77;89727;276;136966;-71
2023/12/31 02:10:55;;;;;;;4.90;3.70;;;;;;;5.89;87.89;99860.02;89697;278;22238;-70
2023/12/31 02:12:56;;;;;;;4.10;3.00;;;;;;;5.93;87.90;99854.69;89892;274;137227;-74
2023/12/31 02:14:58;;;;;;;5.40;3.60;;;;;;;5.94;87.75;99863.01;89872;277;22232;-71
2023/12/31 02:17:00;;;;;;;7.60;4.90;;;;;;;5.90;87.83;99856.77;89739;278;135170;-72
2023/12/31 02:19:02;;;;;;;8.80;6.60;;;;;;;5.86;88.16;99854.88;89481;266;22648;-70
2023/12/31 02:21:05;;;;;;;7.90;6.40;;;;;;;5.84;88.06;99856.99;86693;276;135555;-73
2023/12/31 02:23:08;;;;;;;9.20;7.80;;;;;;;5.80;88.55;99858.56;86934;272;24017;-72
2023/12/31 02:25:14;;;;;;;7.30;5.30;;;;;;;5.78;88.55;99855.42;86877;283;135110;-73
2023/12/31 02:27:16;;;;;;;5.40;3.20;;;;;;;5.76;88.57;99849.61;87002;275;24154;-73
2023/12/31 02:29:19;;;;;;;3.20;2.40;;;;;;;5.74;88.67;99856.05;86989;281;135531;-73
2023/12/31 02:31:21;;;;;;;2.40;2.10;;;;;;;5.76;88.72;99855.14;87026;274;24017;-73
2023/12/31 02:33:23;;;;;;;3.00;1.70;;;;;;;5.80;88.59;99857.44;86981;274;136032;-72
2023/12/31 02:35:24;;;;;;;1.90;1.40;;;;;;;5.84;88.49;99856.90;87010;274;25256;-74
2023/12/31 02:37:26;;;;;;;2.80;1.80;;;;;;;5.80;88.61;99856.21;86917;274;135916;-74
2023/12/31 02:39:30;;;;;;;2.50;2.10;;;;;;;5.73;88.75;99858.80;87149;274;22575;-72
2023/12/31 02:41:32;;;;;;;4.50;4.10;;;;;;;5.68;89.11;99857.70;86963;278;135716;-73
2023/12/31 02:43:34;;;;;;;5.40;4.70;;;;;;;5.63;89.35;99864.08;87093;274;23964;-72
2023/12/31 02:45:36;;;;;;;6.50;4.60;;;;;;;5.60;89.43;99870.11;86878;271;135257;-73
2023/12/31 02:47:38;;;;;;;6.60;3.30;;;;;;;5.52;89.85;99871.80;87137;278;25137;-72
2023/12/31 02:49:41;;;;;;;3.90;2.80;;;;;;;5.45;90.19;99875.00;86992;270;135615;-71
2023/12/31 02:51:44;;;;;;;4.40;2.60;;;;;;;5.38;90.77;99874.95;87047;278;25207;-72
2023/12/31 02:53:46;;;;;;;3.20;2.20;;;;;;;5.34;90.96;99877.85;86764;283;135867;-72
2023/12/31 02:55:47;;;;;;;2.60;1.40;;;;;;;5.37;91.02;99879.79;86877;274;22575;-72
2023/12/31 02:57:49;;;;;;;4.30;2.60;;;;;;;5.38;91.01;99876.66;86678;280;136280;-73
2023/12/31 02:59:51;;;;;;;4.40;1.60;;;;;;;5.38;91.03;99879.88;86872;271;25280;-71
2023/12/31 03:01:56;;;;;;;3.60;3.30;;;;;;;5.40;91.02;99879.48;86638;275;135638;-74
2023/12/31 03:03:58;;;;;;;3.20;2.20;;;;;;;5.42;91.01;99875.57;86735;277;22568;-73
2023/12/31 03:06:00;;;;;;;2.60;1.80;;;;;;;5.38;91.15;99871.01;86778;276;135493;-68
2023/12/31 03:08:02;;;;;;;2.90;2.40;;;;;;;5.36;91.32;99873.05;86947;285;25229;-71
2023/12/31 03:10:06;;;;;;;4.00;3.60;;;;;;;5.33;91.33;99875.41;87047;274;22630;-71
2023/12/31 03:12:08;;;;;;;6.60;4.00;;;;;;;5.28;91.45;99874.55;86884;276;135821;-72
2023/12/31 03:14:13;;;;;;;5.30;4.30;;;;;;;5.23;91.74;99872.60;87113;273;25123;-72
2023/12/31 03:16:15;;;;;;;3.30;3.00;;;;;;;5.19;92.08;99872.86;87037;266;136760;-73
2023/12/31 03:18:17;;;;;;;4.90;2.70;;;;;;;5.14;92.29;99873.09;86846;285;22756;-74
2023/12/31 03:20:19;;;;;;;2.80;2.40;;;;;;;5.11;92.33;99876.62;87210;271;136118;-70
2023/12/31 03:22:21;;;;;;;5.00;2.50;;;;;;;5.07;92.59;99880.81;87207;266;23891;-72
2023/12/31 03:24:40;;;;;;;2.80;2.50;;;;;;;5.08;92.84;99887.83;87237;271;136076;-77
2023/12/31 03:26:42;;;;;;;1.60;1.50;;;;;;;5.09;92.85;99886.27;87312;271;22524;-70
2023/12/31 03:28:44;;;;;;;3.10;2.00;;;;;;;5.09;93.73;99894.42;87176;271;136228;-72
2023/12/31 03:30:49;;;;;;;1.60;1.50;;;;;;;5.02;94.05;99896.73;87169;277;22635;-73
2023/12/31 03:32:51;;;;;;;2.50;2.10;;;;;;;4.93;94.82;99903.15;87206;278;135534;-72
2023/12/31 03:34:53;;;;;;;3.00;2.00;;;;;;;4.91;95.18;99911.11;87413;275;25118;-75
2023/12/31 03:36:55;;;;;;;3.00;1.80;;;;;;;4.88;95.53;99911.36;87276;267;136821;-70
2023/12/31 03:38:57;;;;;;;3.60;3.30;;;;;;;4.85;96.08;99918.91;87208;268;25157;-72
2023/12/31 03:40:59;;;;;;;3.60;3.20;;;;;;;4.82;96.49;99920.16;87277;271;136132;-72
2023/12/31 03:43:02;;;;;;;4.70;3.60;;;;;;;4.79;96.76;99926.06;87400;279;25134;-69
2023/12/31 03:45:05;;;;;;;3.90;2.80;;;;;;;4.77;96.80;99928.06;86981;273;136871;-65
2023/12/31 03:47:07;;;;;;;3.00;2.40;;;;;;;4.75;97.04;99937.20;87104;273;22570;-70
2023/12/31 03:49:11;;;;;;;1.80;1.70;;;;;;;4.72;97.36;99935.48;86952;274;137126;-72
2023/12/31 03:51:13;;;;;;;3.20;1.40;;;;;;;4.68;97.93;99936.16;87196;268;24001;-72
2023/12/31 03:53:18;;;;;;;3.10;2.80;;;;;;;4.62;98.12;99931.58;87199;270;135527;-72
2023/12/31 03:55:20;;;;;;;2.20;2.10;;;;;;;4.55;98.72;99941.59;87128;269;24064;-74
2023/12/31 03:57:22;;;;;;;4.40;2.90;;;;;;;4.52;98.88;99942.85;87373;267;135711;-73
2023/12/31 03:59:24;;;;;;;3.10;2.60;;;;;;;4.49;98.98;99947.27;87375;267;25258;-74
2023/12/31 04:01:26;;;;;;;3.90;3.20;;;;;;;4.46;99.73;99945.70;87278;274;135829;-75
2023/12/31 04:03:29;;;;;;;3.10;2.90;;;;;;;4.44;99.94;99949.21;87128;271;23960;-74
2023/12/31 04:05:31;;;;;;;5.80;2.30;;;;;;;4.45;99.78;99955.80;87274;269;136493;-73
2023/12/31 04:07:35;;;;;;;3.70;3.00;;;;;;;4.44;99.96;99957.67;87505;274;24024;-72
2023/12/31 04:09:37;;;;;;;2.90;2.40;;;;;;;4.44;100.00;99961.92;87245;269;136757;-75
2023/12/31 04:11:39;;;;;;;2.60;1.80;;;;;;;4.48;99.98;99960.45;87305;271;24004;-73
2023/12/31 04:13:41;;;;;;;1.70;1.60;;;;;;;4.52;99.91;99961.80;87187;271;135981;-69
2023/12/31 04:15:44;;;;;;;7.10;3.00;;;;;;;4.49;99.87;99955.73;87035;269;22561;-70
2023/12/31 04:17:46;;;;;;;3.80;2.20;;;;;;;4.47;99.93;99957.72;86932;273;135389;-70
2023/12/31 04:19:48;;;;;;;2.00;1.80;;;;;;;4.45;99.99;99962.88;87388;267;25096;-71
2023/12/31 04:21:50;;;;;;;2.70;2.50;;;;;;;4.42;100.00;99961.09;87043;276;136583;-75
2023/12/31 04:23:53;;;;;;;5.60;3.60;;;;;;;4.38;99.98;99959.88;87235;272;22654;-70
2023/12/31 04:25:55;;;;;;;5.70;3.20;;;;;;;4.39;99.97;99958.57;87239;267;136193;-73
2023/12/31 04:27:59;;;;;;;8.20;3.20;;;;;;;4.37;100.00;99963.84;87170;273;22591;-72
2023/12/31 04:30:02;;;;;;;3.60;2.90;;;;;;;4.30;100.00;99961.35;87049;272;135695;-72
2023/12/31 04:32:04;;;;;;;2.10;1.80;;;;;;;4.29;100.00;99963.77;87170;279;136891;-73
2023/12/31 04:34:06;;;;;;;3.40;2.30;;;;;;;4.30;100.00;99962.84;87065;273;22560;-72
2023/12/31 04:36:08;;;;;;;4.10;2.50;;;;;;;4.19;100.00;99958.13;87306;266;136034;-70
2023/12/31 04:38:10;;;;;;;3.30;2.80;;;;;;;4.14;100.00;99957.80;87138;272;22660;-73
2023/12/31 04:40:12;;;;;;;2.40;1.90;;;;;;;4.13;100.00;99963.33;87284;271;136020;-72
2023/12/31 04:42:14;;;;;;;3.40;2.20;;;;;;;4.03;100.00;99967.34;87301;270;24117;-69
2023/12/31 04:44:16;;;;;;;7.30;3.20;;;;;;;4.05;100.00;99970.97;87024;272;136574;-71
2023/12/31 04:46:21;;;;;;;8.10;3.40;;;;;;;4.08;100.00;99969.18;87408;267;22683;-73
2023/12/31 04:48:22;;;;;;;5.60;3.10;;;;;;;4.05;100.00;99976.04;87174;273;136503;-72
2023/12/31 04:50:25;;;;;;;3.80;3.40;;;;;;;4.04;100.00;99977.17;87381;278;25706;-71
2023/12/31 04:52:28;;;;;;;3.50;2.30;;;;;;;4.02;100.00;99976.20;87139;265;136581;-71
2023/12/31 04:54:30;;;;;;;6.20;4.00;;;;;;;4.00;100.00;99983.08;87388;267;25124;-72
2023/12/31 04:56:32;;;;;;;5.50;3.40;;;;;;;3.99;100.00;99984.39;87259;278;136656;-72
2023/12/31 04:58:34;;;;;;;4.80;3.60;;;;;;;4.00;100.00;99983.23;87289;263;25139;-68
2023/12/31 05:00:35;;;;;;;5.70;3.90;;;;;;;3.99;100.00;99981.38;87268;279;136470;-71
2023/12/31 05:02:38;;;;;;;8.60;5.00;;;;;;;3.91;100.00;99980.83;87328;275;22583;-72
2023/12/31 05:04:40;;;;;;;10.00;5.80;;;;;;;3.84;100.00;99988.38;87084;265;135514;-73
2023/12/31 05:06:42;;;;;;;7.20;4.40;;;;;;;3.81;100.00;99988.64;87455;278;25082;-70
2023/12/31 05:08:45;;;;;;;6.90;4.00;;;;;;;3.81;100.00;99986.69;87208;278;136635;-72
2023/12/31 05:10:47;;;;;;;7.60;5.70;;;;;;;3.83;100.00;99989.01;87497;267;22575;-68
2023/12/31 05:12:50;;;;;;;10.50;6.10;;;;;;;3.88;100.00;99993.77;87340;271;137300;-71
2023/12/31 05:14:53;;;;;;;21.30;12.70;;;;;;;3.93;100.00;99993.97;87359;271;25246;-69
2023/12/31 05:16:55;;;;;;;18.20;11.80;;;;;;;3.96;100.00;99994.94;87177;275;137172;-72
2023/12/31 05:19:00;;;;;;;26.90;17.80;;;;;;;3.96;100.00;99995.04;87485;267;22565;-73
2023/12/31 05:21:02;;;;;;;28.00;17.80;;;;;;;3.89;100.00;99998.41;87426;278;136297;-72
2023/12/31 05:23:03;;;;;;;19.80;14.90;;;;;;;3.82;100.00;100000.52;87112;273;25127;-70
2023/12/31 05:25:06;;;;;;;18.50;11.20;;;;;;;3.79;100.00;100002.17;87108;271;137942;-72
2023/12/31 05:27:08;;;;;;;15.70;9.10;;;;;;;3.78;100.00;100007.06;87302;267;25291;-71
2023/12/31 05:29:12;;;;;;;10.60;8.00;;;;;;;3.87;100.00;100007.88;86970;273;136331;-71
2023/12/31 05:31:14;;;;;;;11.50;8.00;;;;;;;3.90;100.00;100007.44;87253;271;25195;-70
2023/12/31 05:33:16;;;;;;;13.90;8.40;;;;;;;3.89;100.00;100009.99;87099;267;136793;-71
2023/12/31 05:35:18;;;;;;;11.80;7.90;;;;;;;3.90;100.00;100009.73;87140;272;22577;-71
2023/12/31 05:37:20;;;;;;;14.10;10.90;;;;;;;3.88;100.00;100013.58;87113;263;135742;-66
2023/12/31 05:39:21;;;;;;;17.40;11.20;;;;;;;3.87;100.00;100010.77;87361;274;24052;-71
2023/12/31 05:41:23;;;;;;;11.60;7.70;;;;;;;3.85;100.00;100010.28;87299;275;136529;-71
2023/12/31 05:43:25;;;;;;;10.50;5.60;;;;;;;3.82;100.00;100016.03;87321;279;24090;-71
2023/12/31 05:45:27;;;;;;;6.30;3.90;;;;;;;3.82;100.00;100009.34;87166;271;136908;-73
2023/12/31 05:47:29;;;;;;;4.90;3.20;;;;;;;3.85;100.00;100015.16;87320;278;27169;-72
2023/12/31 05:49:47;;;;;;;6.00;4.70;;;;;;;3.89;100.00;100016.22;87343;278;136855;-71
2023/12/31 05:51:49;;;;;;;5.50;3.20;;;;;;;3.94;100.00;100012.55;87397;279;25246;-73
2023/12/31 05:53:51;;;;;;;10.80;5.50;;;;;;;3.93;100.00;100015.95;87109;280;137310;-70
2023/12/31 05:55:53;;;;;;;6.20;4.50;;;;;;;3.95;100.00;100013.95;87314;271;24760;-73
2023/12/31 05:57:55;;;;;;;12.90;6.70;;;;;;;3.99;100.00;100016.70;87341;267;137914;-75
2023/12/31 05:59:59;;;;;;;9.30;6.20;;;;;;;4.06;100.00;100010.20;87408;267;22559;-74
2023/12/31 06:02:12;;;;;;;10.30;7.10;;;;;;;4.10;100.00;100011.39;87296;278;22601;-74
2023/12/31 06:04:14;;;;;;;8.10;6.70;;;;;;;4.09;100.00;100008.16;87300;271;136390;-71
2023/12/31 06:06:16;;;;;;;8.90;6.30;;;;;;;4.11;100.00;100011.66;87475;274;25185;-74
2023/12/31 06:08:18;;;;;;;10.50;6.60;;;;;;;4.14;100.00;100011.73;87269;272;136295;-73
2023/12/31 06:10:20;;;;;;;10.60;7.10;;;;;;;4.18;100.00;100015.57;87290;267;22575;-71
2023/12/31 06:12:22;;;;;;;11.80;7.20;;;;;;;4.23;100.00;100014.49;87281;268;138629;-70
2023/12/31 06:14:24;;;;;;;11.60;7.00;;;;;;;4.28;100.00;100013.48;87325;267;22846;-75
2023/12/31 06:16:25;;;;;;;9.40;6.30;;;;;;;4.34;100.00;100013.06;87257;267;137036;-72
2023/12/31 06:18:27;;;;;;;6.60;4.50;;;;;;;4.42;100.00;100011.76;87178;276;22607;-72
2023/12/31 06:20:29;;;;;;;11.00;6.60;;;;;;;4.45;100.00;100010.69;87270;278;137839;-78
2023/12/31 06:22:31;;;;;;;11.20;6.30;;;;;;;4.44;100.00;100009.89;87210;269;25098;-74
2023/12/31 06:24:33;;;;;;;13.70;7.30;;;;;;;4.42;100.00;100009.79;87285;279;136588;-71
2023/12/31 06:26:34;;;;;;;13.50;8.90;;;;;;;4.40;100.00;100017.39;87332;271;22571;-73
2023/12/31 06:28:37;;;;;;;20.10;15.40;;;;;;;4.37;100.00;100015.42;87215;271;137542;-70
2023/12/31 06:30:39;;;;;;;15.90;11.50;;;;;;;4.37;100.00;100021.00;87344;279;25246;-71
2023/12/31 06:32:41;;;;;;;16.70;11.40;;;;;;;4.41;100.00;100024.13;87196;273;137268;-70
2023/12/31 06:34:43;;;;;;;15.40;9.30;;;;;;;4.43;100.00;100024.60;87351;279;22547;-71
2023/12/31 06:36:45;;;;;;;9.20;6.60;;;;;;;4.42;100.00;100025.42;87177;278;137070;-74
2023/12/31 06:38:47;;;;;;;13.70;10.10;;;;;;;4.42;100.00;100028.26;87186;279;22578;-70
2023/12/31 06:40:49;;;;;;;11.90;7.40;;;;;;;4.41;100.00;100027.95;87272;274;138263;-72
2023/12/31 06:42:51;;;;;;;11.90;7.90;;;;;;;4.37;100.00;100033.17;87334;269;22528;-73
2023/12/31 06:44:52;;;;;;;7.10;5.80;;;;;;;4.31;100.00;100029.58;87234;271;136402;-71
2023/12/31 06:46:54;;;;;;;7.80;4.80;;;;;;;4.26;100.00;100029.15;87293;272;24017;-71
2023/12/31 06:48:56;;;;;;;7.20;4.50;;;;;;;4.23;100.00;100032.30;87119;271;136699;-72
2023/12/31 06:50:58;;;;;;;11.80;4.30;;;;;;;4.26;100.00;100029.84;87326;271;24171;-73
2023/12/31 06:53:00;;;;;;;5.80;4.10;;;;;;;4.33;100.00;100029.33;87109;271;136993;-72
2023/12/31 06:55:03;;;;;;;5.40;4.60;;;;;;;4.44;100.00;100028.73;87252;279;24125;-72
2023/12/31 06:57:05;;;;;;;6.70;4.30;;;;;;;4.55;100.00;100024.30;87025;269;136407;-70
2023/12/31 06:59:10;;;;;;;;;;;;;;;4.63;100.00;100029.30;87225;279;25227;-72
2023/12/31 07:01:13;;;;;;;7.90;4.90;;;;;;;4.59;100.00;100038.15;86981;273;122631;-71
2023/12/31 07:03:15;;;;;;;7.00;3.40;;;;;;;4.62;100.00;100040.98;87226;268;25111;-71
2023/12/31 07:05:17;;;;;;;7.00;3.30;;;;;;;4.66;100.00;100044.09;87241;278;137557;-72
2023/12/31 07:07:19;;;;;;;7.60;4.70;;;;;;;4.68;100.00;100041.08;87264;271;22562;-71
2023/12/31 07:09:21;;;;;;;5.50;4.00;;;;;;;4.64;100.00;100036.95;87257;272;137210;-72
2023/12/31 07:11:23;;;;;;;7.70;4.40;;;;;;;4.63;100.00;100039.46;87046;281;24222;-72
2023/12/31 07:13:25;;;;;;;5.90;3.70;;;;;;;4.65;100.00;100041.00;86979;272;137748;-73
2023/12/31 07:15:27;;;;;;;4.90;4.10;;;;;;;4.72;100.00;100039.52;87158;276;22567;-73
2023/12/31 07:17:31;;;;;;;13.40;4.50;;;;;;;4.74;100.00;100041.20;87435;271;136991;-73
2023/12/31 07:19:33;;;;;;;4.00;3.40;;;;;;;4.71;100.00;100044.36;87137;272;22579;-75
2023/12/31 07:21:35;;;;;;;9.30;4.40;;;;;;;4.64;100.00;100052.94;87160;278;136031;-75
2023/12/31 07:23:38;;;;;;;7.80;5.30;;;;;;;4.57;100.00;100055.43;87253;271;23012;-74
2023/12/31 07:25:40;;;;;;;6.90;4.40;;;;;;;4.55;100.00;100062.02;87246;269;138453;-72
2023/12/31 07:27:41;;;;;;;7.40;5.00;;;;;;;4.56;100.00;100062.22;87323;271;24097;-73
2023/12/31 07:29:43;;;;;;;7.80;4.70;;;;;;;4.61;100.00;100063.86;87183;274;137077;-71
2023/12/31 07:31:45;;;;;;;5.40;4.80;;;;;;;4.66;100.00;100063.66;87401;271;22567;-73
2023/12/31 07:33:48;;;;;;;8.00;5.00;;;;;;;4.72;100.00;100060.06;87266;275;139327;-71
2023/12/31 07:35:50;;;;;;;11.30;6.70;;;;;;;4.76;100.00;100059.48;87347;266;22654;-71
2023/12/31 07:37:52;;;;;;;19.10;13.00;;;;;;;4.81;100.00;100059.29;87027;268;137209;-73
2023/12/31 07:39:54;;;;;;;18.10;9.60;;;;;;;4.89;100.00;100062.59;87390;271;24312;-67
2023/12/31 07:41:56;;;;;;;6.60;4.90;;;;;;;4.98;100.00;100064.08;87308;269;135927;-75
2023/12/31 07:43:59;;;;;;;7.30;4.00;;;;;;;5.00;100.00;100066.50;87104;268;22656;-73
2023/12/31 07:46:02;;;;;;;9.00;4.60;;;;;;;4.98;100.00;100067.75;87373;271;136843;-68
2023/12/31 07:48:08;;;;;;;10.10;6.50;;;;;;;5.00;100.00;100066.41;87005;272;137440;-68
2023/12/31 07:50:13;;;;;;;4.40;3.10;;;;;;;5.09;100.00;100065.91;87268;279;22641;-72
2023/12/31 07:52:15;;;;;;;6.90;3.60;;;;;;;5.18;100.00;100070.27;87197;270;137038;-73
2023/12/31 07:54:17;;;;;;;7.10;4.20;;;;;;;5.23;100.00;100075.24;87206;271;22566;-74
2023/12/31 07:56:19;;;;;;;5.00;3.00;;;;;;;5.26;100.00;100079.85;87089;269;137895;-71
2023/12/31 07:58:24;;;;;;;3.60;2.70;;;;;;;5.29;100.00;100085.73;87373;278;24010;-73
2023/12/31 08:00:26;;;;;;;8.40;3.90;;;;;;;5.30;99.93;100090.89;87153;279;136214;-74
2023/12/31 08:02:28;;;;;;;6.90;4.30;;;;;;;5.29;99.69;100089.80;87269;271;22566;-75
2023/12/31 08:04:31;;;;;;;9.20;4.30;;;;;;;5.28;99.75;100088.51;87169;267;136158;-77
2023/12/31 08:06:32;;;;;;;6.60;4.60;;;;;;;5.27;99.71;100094.36;87337;271;22601;-73
2023/12/31 08:08:34;;;;;;;4.30;3.10;;;;;;;5.36;99.71;100097.68;87243;278;137866;-70
2023/12/31 08:10:40;;;;;;;4.00;2.70;;;;;;;5.41;98.57;100093.47;87151;272;22630;-74
2023/12/31 08:12:42;;;;;;;3.80;3.00;;;;;;;5.44;98.25;100102.34;87195;268;136859;-74
2023/12/31 08:14:47;;;;;;;4.70;3.50;;;;;;;5.42;98.20;100106.05;87402;263;24062;-72
2023/12/31 08:16:50;;;;;;;5.80;4.10;;;;;;;5.39;98.55;100105.13;87340;267;137437;-72
2023/12/31 08:18:52;;;;;;;6.00;3.50;;;;;;;5.40;99.13;100113.06;87649;275;22563;-72
2023/12/31 08:20:53;;;;;;;6.50;3.60;;;;;;;5.47;98.99;100114.14;87190;266;137693;-74
2023/12/31 08:22:55;;;;;;;7.30;4.30;;;;;;;5.49;97.96;100115.16;87265;279;25124;-72
2023/12/31 08:24:57;;;;;;;6.60;3.10;;;;;;;5.51;97.74;100113.62;87327;267;136528;-73
2023/12/31 08:26:59;;;;;;;4.70;3.60;;;;;;;5.54;97.82;100114.33;87099;272;23746;-74
2023/12/31 08:29:02;;;;;;;5.70;3.10;;;;;;;5.59;97.85;100113.73;87193;271;136587;-72
2023/12/31 08:31:04;;;;;;;20.10;5.50;;;;;;;5.67;97.31;100112.95;87364;271;22642;-71
2023/12/31 08:33:06;;;;;;;9.80;3.50;;;;;;;5.72;97.18;100116.45;87169;275;136073;-72
2023/12/31 08:35:10;;;;;;;16.90;4.50;;;;;;;5.76;96.87;100117.29;87310;271;22843;-75
2023/12/31 08:37:12;;;;;;;7.80;2.60;;;;;;;5.82;96.81;100114.22;87286;271;136226;-73
2023/12/31 08:39:14;;;;;;;2.80;1.60;;;;;;;5.88;96.28;100111.24;87375;270;22968;-73
2023/12/31 08:41:18;;;;;;;9.50;3.50;;;;;;;5.91;95.02;100107.98;87272;271;136052;-73
2023/12/31 08:43:19;;;;;;;29.70;4.90;;;;;;;5.91;94.87;100110.05;87179;272;25472;-73
2023/12/31 08:45:22;;;;;;;4.70;2.80;;;;;;;5.90;95.21;100108.55;87198;274;136209;-72
2023/12/31 08:47:24;;;;;;;5.00;2.80;;;;;;;5.95;94.79;100102.95;87395;271;22653;-71
2023/12/31 08:49:27;;;;;;;4.10;3.20;;;;;;;6.06;94.94;100099.00;87158;271;138099;-72
2023/12/31 08:51:29;;;;;;;8.40;2.60;;;;;;;6.17;93.42;100102.05;87358;271;22561;-74
2023/12/31 08:53:31;;;;;;;3.00;2.30;;;;;;;6.22;92.75;100101.95;87263;270;137318;-73
2023/12/31 08:55:33;;;;;;;5.30;1.90;;;;;;;6.23;91.38;100093.22;87296;269;22587;-72
2023/12/31 08:57:37;;;;;;;2.50;2.30;;;;;;;6.19;91.07;100095.77;87184;271;136160;-72
2023/12/31 08:59:38;;;;;;;5.60;3.30;;;;;;;6.19;91.11;100101.48;87579;272;25092;-71
2023/12/31 09:01:40;;;;;;;8.60;4.00;;;;;;;6.20;91.22;100090.02;87171;278;136066;-70
2023/12/31 09:03:42;;;;;;;4.50;2.50;;;;;;;6.25;90.87;100098.52;87384;274;22581;-73
2023/12/31 09:05:44;;;;;;;7.30;1.90;;;;;;;6.29;90.11;100099.73;87203;267;136346;-72
2023/12/31 09:07:47;;;;;;;6.20;2.90;;;;;;;6.31;90.05;100101.42;87437;278;25138;-72
2023/12/31 09:09:49;;;;;;;4.30;2.80;;;;;;;6.32;89.04;100096.48;86995;273;136160;-73
2023/12/31 09:11:51;;;;;;;6.30;2.60;;;;;;;6.33;88.81;100104.71;87399;279;25187;-70
2023/12/31 09:13:53;;;;;;;3.00;2.00;;;;;;;6.32;89.10;100104.86;87215;278;138749;-73
2023/12/31 09:15:55;;;;;;;6.30;2.80;;;;;;;6.36;88.83;100105.75;87330;271;22530;-72
2023/12/31 09:17:57;;;;;;;5.40;2.60;;;;;;;6.41;88.01;100101.88;87183;272;136263;-73
2023/12/31 09:20:02;;;;;;;4.50;1.80;;;;;;;6.42;87.75;100105.48;87181;279;22570;-73
2023/12/31 09:22:04;;;;;;;;;;;;;;;6.35;88.05;100103.76;87406;271;22557;-71
2023/12/31 09:24:08;;;;;;;3.80;1.90;;;;;;;6.30;88.10;100100.12;86779;280;500427;-73
2023/12/31 09:26:12;;;;;;;3.70;2.10;;;;;;;6.21;87.57;100098.77;87357;273;22638;-73
2023/12/31 09:28:14;;;;;;;4.40;2.30;;;;;;;6.17;88.11;100099.70;87289;271;136247;-72
2023/12/31 09:30:16;;;;;;;6.00;2.30;;;;;;;6.16;88.54;100104.42;87376;271;25055;-74
2023/12/31 09:32:18;;;;;;;3.10;2.00;;;;;;;6.17;88.10;100105.55;87217;271;136394;-73
2023/12/31 09:34:20;;;;;;;6.60;2.20;;;;;;;6.19;88.13;100110.58;87389;266;25284;-75
2023/12/31 09:36:21;;;;;;;5.10;2.20;;;;;;;6.23;87.89;100113.16;87261;271;137299;-71
2023/12/31 09:38:26;;;;;;;3.70;2.00;;;;;;;6.28;87.50;100114.28;87126;279;25095;-73
2023/12/31 09:40:28;;;;;;;2.60;1.30;;;;;;;6.32;87.08;100108.20;87059;279;136335;-73
2023/12/31 09:42:48;;;;;;;2.10;1.70;;;;;;;6.36;85.96;100114.81;87421;267;22571;-72